createdAt,value
2017-11-08T00:01:09.551Z,4.90
2017-11-08T00:03:36.246Z,4.80
2017-11-08T00:06:02.744Z,4.80
2017-11-08T00:08:28.706Z,4.80
2017-11-08T00:10:55.393Z,4.80
2017-11-08T00:13:21.372Z,4.70
2017-11-08T00:15:47.328Z,4.80
2017-11-08T00:18:14.011Z,4.90
2017-11-08T00:20:40.015Z,4.90
2017-11-08T00:23:07.594Z,4.80
2017-11-08T00:25:34.322Z,4.70
2017-11-08T00:28:00.264Z,4.70
2017-11-08T00:30:26.259Z,4.70
2017-11-08T00:32:52.209Z,4.80
2017-11-08T00:35:18.157Z,4.90
2017-11-08T00:37:44.135Z,4.80
2017-11-08T00:40:10.132Z,4.80
2017-11-08T00:42:36.135Z,4.90
2017-11-08T00:45:02.125Z,4.80
2017-11-08T00:47:30.800Z,4.80
2017-11-08T00:49:56.741Z,4.80
2017-11-08T00:52:22.743Z,4.80
2017-11-08T00:54:48.741Z,4.80
2017-11-08T00:57:21.811Z,4.80
2017-11-08T00:59:47.794Z,4.80
2017-11-08T01:02:14.532Z,4.70
2017-11-08T01:04:40.477Z,4.70
2017-11-08T01:07:07.162Z,4.70
2017-11-08T01:09:33.148Z,4.70
2017-11-08T01:11:59.106Z,4.70
2017-11-08T01:14:25.821Z,4.70
2017-11-08T01:16:51.776Z,4.60
2017-11-08T01:19:17.732Z,4.70
2017-11-08T01:21:44.481Z,4.70
2017-11-08T01:24:11.210Z,4.70
2017-11-08T01:26:37.165Z,4.60
2017-11-08T01:29:03.865Z,4.60
2017-11-08T01:31:29.841Z,4.60
2017-11-08T01:33:55.784Z,4.60
2017-11-08T01:36:22.508Z,4.60
2017-11-08T01:38:48.480Z,4.60
2017-11-08T01:41:21.244Z,4.60
2017-11-08T01:43:47.197Z,4.60
2017-11-08T01:46:16.080Z,4.60
2017-11-08T01:48:42.765Z,4.60
2017-11-08T01:51:13.376Z,4.50
2017-11-08T01:53:39.372Z,4.60
2017-11-08T01:56:05.308Z,4.60
2017-11-08T01:58:31.234Z,4.50
2017-11-08T02:00:57.216Z,4.50
2017-11-08T02:03:23.161Z,4.50
2017-11-08T02:05:49.109Z,4.40
2017-11-08T02:08:15.132Z,4.30
2017-11-08T02:10:41.086Z,4.30
2017-11-08T02:13:07.057Z,4.30
2017-11-08T02:15:33.030Z,4.30
2017-11-08T02:17:59.029Z,4.40
2017-11-08T02:20:24.992Z,4.40
2017-11-08T02:22:50.933Z,4.20
2017-11-08T02:25:16.909Z,4.20
2017-11-08T02:27:43.622Z,4.30
2017-11-08T02:30:09.591Z,4.30
2017-11-08T02:32:36.323Z,4.10
2017-11-08T02:35:02.315Z,4.10
2017-11-08T02:37:28.251Z,4.10
2017-11-08T02:39:54.198Z,4.10
2017-11-08T02:42:20.173Z,4.10
2017-11-08T02:44:46.159Z,4.10
2017-11-08T02:47:12.105Z,4.20
2017-11-08T02:49:38.081Z,4.20
2017-11-08T02:52:04.070Z,4.10
2017-11-08T02:54:30.017Z,4.00
2017-11-08T02:56:55.965Z,4.00
2017-11-08T02:59:21.962Z,4.10
2017-11-08T03:01:47.925Z,4.10
2017-11-08T03:04:13.887Z,4.10
2017-11-08T03:06:39.894Z,4.10
2017-11-08T03:09:05.884Z,4.10
2017-11-08T03:11:32.597Z,4.00
2017-11-08T03:13:58.542Z,4.00
2017-11-08T03:16:24.498Z,3.90
2017-11-08T03:18:50.482Z,4.00
2017-11-08T03:21:16.458Z,4.00
2017-11-08T03:23:42.435Z,4.00
2017-11-08T03:26:08.395Z,4.10
2017-11-08T03:28:34.386Z,4.20
2017-11-08T03:31:01.088Z,4.30
2017-11-08T03:33:27.116Z,4.30
2017-11-08T03:35:53.095Z,4.30
2017-11-08T03:38:19.058Z,4.20
2017-11-08T03:40:45.758Z,4.10
2017-11-08T03:43:11.729Z,4.00
2017-11-08T03:45:38.413Z,4.00
2017-11-08T03:48:04.389Z,4.00
2017-11-08T03:50:30.342Z,4.00
2017-11-08T03:52:56.325Z,4.00
2017-11-08T03:55:22.273Z,4.10
2017-11-08T03:57:48.265Z,4.20
2017-11-08T04:00:15.006Z,4.10
2017-11-08T04:02:41.050Z,4.10
2017-11-08T04:05:06.997Z,4.10
2017-11-08T04:07:33.690Z,4.20
2017-11-08T04:09:59.665Z,4.20
2017-11-08T04:12:25.613Z,4.30
2017-11-08T04:14:51.602Z,4.40
2017-11-08T04:17:17.596Z,4.30
2017-11-08T04:19:44.305Z,4.30
2017-11-08T04:22:10.241Z,4.30
2017-11-08T04:24:36.222Z,4.30
2017-11-08T04:27:02.952Z,4.40
2017-11-08T04:29:29.645Z,4.40
2017-11-08T04:31:55.622Z,4.40
2017-11-08T04:34:21.574Z,4.50
2017-11-08T04:36:47.565Z,4.50
2017-11-08T04:39:13.561Z,4.50
2017-11-08T04:41:40.281Z,4.50
2017-11-08T04:44:06.228Z,4.50
2017-11-08T04:46:32.202Z,4.50
2017-11-08T04:48:58.148Z,4.60
2017-11-08T04:51:24.177Z,4.60
2017-11-08T04:53:50.869Z,4.60
2017-11-08T04:56:16.842Z,4.60
2017-11-08T04:58:43.576Z,4.60
2017-11-08T05:01:09.533Z,4.60
2017-11-08T05:03:36.267Z,4.60
2017-11-08T05:06:02.220Z,4.60
2017-11-08T05:08:28.937Z,4.70
2017-11-08T05:10:54.917Z,4.70
2017-11-08T05:13:21.612Z,4.90
2017-11-08T05:15:47.616Z,4.80
2017-11-08T05:18:14.372Z,5.00
2017-11-08T05:20:40.345Z,5.00
2017-11-08T05:23:06.296Z,5.00
2017-11-08T05:25:32.297Z,5.00
2017-11-08T05:27:58.242Z,5.00
2017-11-08T05:30:24.195Z,5.00
2017-11-08T05:32:50.186Z,5.00
2017-11-08T05:35:16.171Z,5.10
2017-11-08T05:37:42.159Z,5.00
2017-11-08T05:40:08.126Z,5.10
2017-11-08T05:42:34.118Z,5.10
2017-11-08T05:45:00.812Z,5.10
2017-11-08T05:47:26.765Z,5.10
2017-11-08T05:49:52.746Z,5.20
2017-11-08T05:52:19.441Z,5.20
2017-11-08T05:54:45.437Z,5.20
2017-11-08T05:57:11.486Z,5.20
2017-11-08T05:59:37.502Z,5.20
2017-11-08T06:02:04.246Z,5.10
2017-11-08T06:04:30.202Z,5.20
2017-11-08T06:06:56.155Z,5.30
2017-11-08T06:09:22.157Z,5.20
2017-11-08T06:11:48.845Z,5.20
2017-11-08T06:14:14.836Z,5.20
2017-11-08T06:16:40.821Z,5.20
2017-11-08T06:19:06.809Z,5.20
2017-11-08T06:21:32.748Z,5.30
2017-11-08T06:23:59.448Z,5.40
2017-11-08T06:26:25.541Z,5.40
2017-11-08T06:28:52.230Z,5.60
2017-11-08T06:31:18.217Z,5.60
2017-11-08T06:33:44.173Z,5.60
2017-11-08T06:36:10.898Z,5.60
2017-11-08T06:38:37.617Z,5.70
2017-11-08T06:41:03.569Z,5.70
2017-11-08T06:43:29.554Z,5.70
2017-11-08T06:45:56.290Z,5.90
2017-11-08T06:48:22.235Z,5.90
2017-11-08T06:50:48.945Z,5.90
2017-11-08T06:53:15.747Z,5.80
2017-11-08T06:55:42.429Z,5.90
2017-11-08T06:58:08.397Z,5.80
2017-11-08T07:00:34.341Z,5.90
2017-11-08T07:03:00.372Z,6.00
2017-11-08T07:05:26.355Z,6.00
2017-11-08T07:07:52.306Z,6.00
2017-11-08T07:10:18.304Z,6.10
2017-11-08T07:12:45.017Z,6.30
2017-11-08T07:15:11.000Z,6.30
2017-11-08T07:17:37.717Z,6.50
2017-11-08T07:20:03.670Z,6.50
2017-11-08T07:22:29.641Z,6.60
2017-11-08T07:24:55.613Z,6.70
2017-11-08T07:27:21.606Z,6.70
2017-11-08T07:29:47.546Z,6.70
2017-11-08T07:32:13.554Z,6.80
2017-11-08T07:34:39.497Z,6.80
2017-11-08T07:37:06.188Z,6.90
2017-11-08T07:39:32.161Z,6.90
2017-11-08T07:41:59.594Z,7.10
2017-11-08T07:44:25.570Z,7.10
2017-11-08T07:46:51.541Z,7.20
2017-11-08T07:49:18.264Z,7.40
2017-11-08T07:51:44.267Z,7.40
2017-11-08T07:54:11.202Z,7.50
2017-11-08T07:56:37.157Z,7.60
2017-11-08T07:59:03.133Z,7.80
2017-11-08T08:01:29.139Z,7.90
2017-11-08T08:03:55.141Z,7.90
2017-11-08T08:06:21.103Z,8.00
2017-11-08T08:08:47.135Z,8.00
2017-11-08T08:11:19.197Z,8.10
2017-11-08T08:13:45.173Z,8.40
2017-11-08T08:18:42.778Z,8.10
2017-11-08T08:21:14.810Z,8.00
2017-11-08T08:23:40.794Z,7.90
2017-11-08T08:26:06.743Z,7.90
2017-11-08T08:28:39.685Z,7.90
2017-11-08T08:31:05.639Z,7.90
2017-11-08T08:33:31.598Z,8.00
2017-11-08T08:35:57.582Z,8.00
2017-11-08T08:38:23.529Z,8.00
2017-11-08T08:40:49.517Z,8.20
2017-11-08T08:43:15.469Z,8.20
2017-11-08T08:45:42.210Z,8.20
2017-11-08T08:48:08.169Z,8.20
2017-11-08T08:50:34.874Z,8.30
2017-11-08T08:53:00.853Z,8.20
2017-11-08T08:55:27.542Z,8.30
2017-11-08T08:57:53.523Z,8.20
2017-11-08T09:00:20.287Z,8.20
2017-11-08T09:02:47.919Z,8.40
2017-11-08T09:05:13.886Z,8.40
2017-11-08T09:07:39.874Z,8.50
2017-11-08T09:10:05.825Z,8.60
2017-11-08T09:12:31.801Z,8.80
2017-11-08T09:14:57.769Z,9.00
2017-11-08T09:17:23.709Z,9.10
2017-11-08T09:19:49.686Z,9.20
2017-11-08T09:22:15.699Z,9.20
2017-11-08T09:24:41.693Z,9.20
2017-11-08T09:27:10.409Z,9.30
2017-11-08T09:29:39.204Z,9.30
2017-11-08T09:32:08.846Z,9.30
2017-11-08T09:34:34.805Z,9.30
2017-11-08T09:37:00.788Z,9.30
2017-11-08T09:39:27.465Z,9.60
2017-11-08T09:41:55.284Z,9.60
2017-11-08T09:44:21.244Z,9.60
2017-11-08T09:46:47.234Z,9.70
2017-11-08T09:49:13.222Z,9.80
2017-11-08T09:51:39.937Z,9.90
2017-11-08T09:54:07.721Z,10.00
2017-11-08T09:56:33.717Z,10.00
2017-11-08T09:59:03.530Z,10.00
2017-11-08T10:01:35.729Z,10.20
2017-11-08T10:04:01.773Z,10.10
2017-11-08T10:06:27.722Z,10.10
2017-11-08T10:08:53.717Z,10.20
2017-11-08T10:11:19.686Z,10.10
2017-11-08T10:13:45.714Z,10.20
2017-11-08T10:16:11.697Z,10.40
2017-11-08T10:18:37.653Z,10.40
2017-11-08T10:21:04.457Z,10.20
2017-11-08T10:23:31.100Z,10.20
2017-11-08T10:25:57.146Z,10.20
2017-11-08T10:28:23.094Z,10.10
2017-11-08T10:30:49.058Z,10.00
2017-11-08T10:33:15.061Z,10.10
2017-11-08T10:35:41.062Z,10.10
2017-11-08T10:38:07.005Z,10.00
2017-11-08T10:40:32.970Z,10.00
2017-11-08T10:42:58.920Z,10.00
2017-11-08T10:45:24.894Z,10.10
2017-11-08T10:47:50.904Z,10.00
2017-11-08T10:50:16.898Z,10.10
2017-11-08T10:52:44.794Z,10.10
2017-11-08T10:55:11.521Z,9.90
2017-11-08T10:57:40.374Z,9.90
2017-11-08T11:00:08.278Z,9.90
2017-11-08T11:02:34.218Z,9.80
2017-11-08T11:05:00.205Z,9.90
2017-11-08T11:07:26.932Z,10.00
2017-11-08T11:09:52.878Z,9.90
2017-11-08T11:12:18.892Z,10.00
2017-11-08T11:14:44.867Z,10.00
2017-11-08T11:17:11.546Z,10.10
2017-11-08T11:19:37.537Z,10.10
2017-11-08T11:22:03.488Z,10.30
2017-11-08T11:27:21.406Z,10.40
2017-11-08T11:29:47.390Z,10.40
2017-11-08T11:32:16.378Z,10.50
2017-11-08T11:34:42.322Z,10.40
2017-11-08T11:37:08.302Z,10.50
2017-11-08T11:39:34.996Z,10.60
2017-11-08T11:42:00.987Z,10.60
2017-11-08T11:44:27.665Z,10.60
2017-11-08T11:46:53.633Z,10.60
2017-11-08T11:49:19.577Z,10.80
2017-11-08T11:51:45.590Z,10.90
2017-11-08T11:54:11.536Z,10.90
2017-11-08T11:56:37.512Z,11.00
2017-11-08T11:59:04.206Z,11.00
2017-11-08T12:01:30.150Z,11.00
2017-11-08T12:03:56.134Z,11.00
2017-11-08T12:06:22.086Z,11.10
2017-11-08T12:08:48.782Z,11.00
2017-11-08T12:11:14.771Z,11.00
2017-11-08T12:13:41.458Z,11.00
2017-11-08T12:16:08.402Z,11.00
2017-11-08T12:18:34.350Z,11.00
2017-11-08T12:21:00.291Z,10.80
2017-11-08T12:23:26.266Z,10.60
2017-11-08T12:25:52.207Z,10.60
2017-11-08T12:28:18.198Z,10.50
2017-11-08T12:30:44.153Z,10.50
2017-11-08T12:33:10.089Z,10.40
2017-11-08T12:35:36.079Z,10.30
2017-11-08T12:38:02.763Z,10.00
2017-11-08T12:40:28.739Z,10.00
2017-11-08T12:43:00.459Z,10.00
2017-11-08T12:45:26.443Z,10.00
2017-11-08T12:47:52.427Z,10.10
2017-11-08T12:50:18.381Z,10.20
2017-11-08T12:52:44.378Z,10.30
2017-11-08T12:55:11.067Z,10.40
2017-11-08T12:57:37.050Z,10.40
2017-11-08T13:00:03.771Z,10.10
2017-11-08T13:02:29.758Z,10.10
2017-11-08T13:04:56.486Z,10.00
2017-11-08T13:07:22.482Z,10.10
2017-11-08T13:09:48.426Z,10.00
2017-11-08T13:12:14.380Z,10.20
2017-11-08T13:14:40.387Z,10.20
2017-11-08T13:17:06.368Z,10.20
2017-11-08T13:19:32.322Z,10.20
2017-11-08T13:21:59.048Z,10.00
2017-11-08T13:24:25.038Z,10.00
2017-11-08T13:26:51.003Z,9.90
2017-11-08T13:29:16.994Z,9.90
2017-11-08T13:31:43.683Z,9.80
2017-11-08T13:34:09.641Z,9.70
2017-11-08T13:36:35.615Z,9.90
2017-11-08T13:39:02.306Z,9.80
2017-11-08T13:41:28.287Z,9.80
2017-11-08T13:43:54.269Z,9.90
2017-11-08T13:46:20.218Z,10.00
2017-11-08T13:48:46.210Z,10.10
2017-11-08T13:51:12.902Z,10.10
2017-11-08T13:53:38.862Z,10.10
2017-11-08T13:56:04.846Z,10.00
2017-11-08T13:58:30.811Z,10.00
2017-11-08T14:00:56.794Z,9.80
2017-11-08T14:03:24.794Z,9.90
2017-11-08T14:05:51.494Z,10.00
2017-11-08T14:08:17.506Z,10.00
2017-11-08T14:10:43.450Z,10.00
2017-11-08T14:13:09.406Z,9.80
2017-11-08T14:15:35.382Z,9.90
2017-11-08T14:18:02.118Z,9.90
2017-11-08T14:20:28.070Z,9.90
2017-11-08T14:22:54.789Z,9.80
2017-11-08T14:25:20.771Z,9.80
2017-11-08T14:27:47.482Z,9.80
2017-11-08T14:30:15.334Z,9.70
2017-11-08T14:32:41.342Z,9.70
2017-11-08T14:35:07.306Z,9.60
2017-11-08T14:37:33.279Z,9.70
2017-11-08T14:39:59.254Z,9.70
2017-11-08T14:42:28.111Z,9.80
2017-11-08T14:44:54.111Z,9.90
2017-11-08T14:47:20.059Z,9.90
2017-11-08T14:49:46.034Z,9.90
2017-11-08T14:52:12.037Z,9.70
2017-11-08T14:54:38.994Z,9.70
2017-11-08T14:57:04.956Z,9.70
2017-11-08T14:59:30.953Z,9.50
2017-11-08T15:01:56.968Z,9.60
2017-11-08T15:04:22.923Z,9.60
2017-11-08T15:06:48.895Z,9.50
2017-11-08T15:09:14.956Z,9.40
2017-11-08T15:11:44.583Z,9.20
2017-11-08T15:14:16.273Z,9.20
2017-11-08T15:16:42.259Z,9.20
2017-11-08T15:19:09.697Z,9.20
2017-11-08T15:21:35.703Z,9.20
2017-11-08T15:24:05.351Z,9.20
2017-11-08T15:26:31.315Z,9.20
2017-11-08T15:28:58.138Z,9.30
2017-11-08T15:31:25.965Z,9.30
2017-11-08T15:33:51.974Z,9.20
2017-11-08T15:36:18.011Z,9.10
2017-11-08T15:38:44.630Z,9.10
2017-11-08T15:41:10.683Z,9.20
2017-11-08T15:43:36.702Z,9.20
2017-11-08T15:46:02.646Z,9.10
2017-11-08T15:48:28.606Z,9.10
2017-11-08T15:50:54.604Z,9.10
2017-11-08T15:53:21.311Z,9.10
2017-11-08T15:55:47.269Z,9.00
2017-11-08T15:58:13.997Z,9.10
2017-11-08T16:00:40.010Z,9.10
2017-11-08T16:03:07.770Z,9.20
2017-11-08T16:05:33.754Z,9.20
2017-11-08T16:07:59.705Z,9.20
2017-11-08T16:10:25.695Z,9.20
2017-11-08T16:12:55.607Z,9.20
2017-11-08T16:15:21.582Z,9.30
2017-11-08T16:17:51.338Z,9.20
2017-11-08T16:20:18.053Z,9.00
2017-11-08T16:22:44.075Z,9.00
2017-11-08T16:25:10.026Z,9.10
2017-11-08T16:27:36.075Z,9.20
2017-11-08T16:30:02.014Z,9.10
2017-11-08T16:32:28.002Z,9.00
2017-11-08T16:34:53.991Z,9.00
2017-11-08T16:37:19.965Z,8.90
2017-11-08T16:39:45.992Z,8.90
2017-11-08T16:42:12.695Z,8.90
2017-11-08T16:44:38.692Z,8.90
2017-11-08T16:47:04.637Z,8.90
2017-11-08T16:49:30.611Z,8.90
2017-11-08T16:51:56.602Z,8.90
2017-11-08T16:54:22.583Z,9.00
2017-11-08T16:56:48.546Z,8.90
2017-11-08T16:59:15.020Z,8.90
2017-11-08T17:01:40.995Z,8.90
2017-11-08T17:04:06.990Z,8.90
2017-11-08T17:06:32.967Z,9.10
2017-11-08T17:08:58.959Z,9.10
2017-11-08T17:11:24.963Z,9.20
2017-11-08T17:13:50.942Z,9.10
2017-11-08T17:16:16.939Z,9.00
2017-11-08T17:18:42.894Z,8.90
2017-11-08T17:21:09.581Z,8.80
2017-11-08T17:23:35.550Z,8.70
2017-11-08T17:26:02.996Z,8.60
2017-11-08T17:28:28.995Z,8.60
2017-11-08T17:30:54.942Z,8.60
2017-11-08T17:33:20.926Z,8.50
2017-11-08T17:35:46.913Z,8.40
2017-11-08T17:38:12.861Z,8.50
2017-11-08T17:40:38.859Z,8.50
2017-11-08T17:43:05.546Z,8.60
2017-11-08T17:45:31.539Z,8.60
2017-11-08T17:47:57.489Z,8.60
2017-11-08T17:50:23.458Z,8.50
2017-11-08T17:52:49.435Z,8.50
2017-11-08T17:55:15.391Z,8.50
2017-11-08T17:57:42.120Z,8.50
2017-11-08T18:00:08.088Z,8.40
2017-11-08T18:02:34.854Z,8.40
2017-11-08T18:05:00.820Z,8.40
2017-11-08T18:07:26.826Z,8.40
2017-11-08T18:09:52.785Z,8.30
2017-11-08T18:12:18.787Z,8.50
2017-11-08T18:14:45.497Z,8.40
2017-11-08T18:17:11.479Z,8.40
2017-11-08T18:19:37.500Z,8.30
2017-11-08T18:22:04.208Z,8.30
2017-11-08T18:24:30.232Z,8.30
2017-11-08T18:26:56.183Z,8.20
2017-11-08T18:29:22.142Z,8.20
2017-11-08T18:31:48.126Z,8.30
2017-11-08T18:34:14.098Z,8.40
2017-11-08T18:36:40.082Z,8.30
2017-11-08T18:39:06.029Z,8.40
2017-11-08T18:41:32.006Z,8.40
2017-11-08T18:43:57.954Z,8.30
2017-11-08T18:46:23.946Z,8.30
2017-11-08T18:48:49.907Z,8.20
2017-11-08T18:51:15.891Z,8.20
2017-11-08T18:53:42.610Z,8.20
2017-11-08T18:56:08.553Z,8.10
2017-11-08T18:58:35.345Z,8.10
2017-11-08T19:01:01.327Z,8.10
2017-11-08T19:03:27.324Z,8.20
2017-11-08T19:05:53.270Z,8.20
2017-11-08T19:08:19.291Z,8.20
2017-11-08T19:10:45.292Z,8.20
2017-11-08T19:13:11.246Z,8.10
2017-11-08T19:15:37.974Z,8.20
2017-11-08T19:18:03.971Z,8.20
2017-11-08T19:20:29.923Z,8.20
2017-11-08T19:22:55.937Z,8.20
2017-11-08T19:25:21.944Z,8.20
2017-11-08T19:27:48.661Z,8.20
2017-11-08T19:30:14.695Z,8.20
2017-11-08T19:32:40.649Z,8.20
2017-11-08T19:35:06.611Z,8.10
2017-11-08T19:37:33.334Z,8.10
2017-11-08T19:39:59.386Z,8.10
2017-11-08T19:42:26.129Z,8.00
2017-11-08T19:44:53.602Z,8.00
2017-11-08T19:47:19.603Z,8.00
2017-11-08T19:49:45.645Z,8.00
2017-11-08T19:52:11.648Z,8.00
2017-11-08T19:54:37.623Z,8.10
2017-11-08T19:57:18.583Z,8.10
2017-11-08T19:59:44.568Z,8.00
2017-11-08T20:02:10.558Z,8.00
2017-11-08T20:04:36.551Z,8.00
2017-11-08T20:07:03.246Z,8.10
2017-11-08T20:09:29.246Z,8.00
2017-11-08T20:11:55.948Z,7.90
2017-11-08T20:14:21.959Z,7.90
2017-11-08T20:16:47.963Z,8.00
2017-11-08T20:19:14.712Z,8.00
2017-11-08T20:21:40.703Z,7.90
2017-11-08T20:24:06.654Z,8.00
2017-11-08T20:26:32.659Z,8.00
2017-11-08T20:28:58.615Z,8.00
2017-11-08T20:31:24.589Z,8.00
2017-11-08T20:33:50.594Z,8.00
2017-11-08T20:36:16.541Z,8.00
2017-11-08T20:38:42.569Z,7.90
2017-11-08T20:41:08.515Z,7.90
2017-11-08T20:43:34.465Z,7.90
2017-11-08T20:46:00.450Z,7.90
2017-11-08T20:48:26.433Z,7.90
2017-11-08T20:50:52.430Z,7.90
2017-11-08T20:53:18.395Z,7.90
2017-11-08T20:55:44.375Z,7.90
2017-11-08T20:58:11.115Z,7.90
2017-11-08T21:00:37.814Z,7.90
2017-11-08T21:03:03.802Z,7.80
2017-11-08T21:05:30.558Z,7.90
2017-11-08T21:07:57.378Z,8.00
2017-11-08T21:10:23.330Z,8.00
2017-11-08T21:12:49.371Z,8.00
2017-11-08T21:15:15.332Z,7.90
2017-11-08T21:17:42.026Z,7.80
2017-11-08T21:20:08.024Z,7.80
2017-11-08T21:22:34.032Z,7.80
2017-11-08T21:25:00.768Z,7.70
2017-11-08T21:27:26.713Z,7.60
2017-11-08T21:29:52.690Z,7.60
2017-11-08T21:32:19.451Z,7.60
2017-11-08T21:34:45.426Z,7.60
2017-11-08T21:37:11.415Z,7.60
2017-11-08T21:39:37.390Z,7.60
2017-11-08T21:42:03.394Z,7.80
2017-11-08T21:44:29.376Z,7.70
2017-11-08T21:46:55.330Z,7.60
2017-11-08T21:49:22.073Z,7.70
2017-11-08T21:51:48.030Z,7.60
2017-11-08T21:54:14.730Z,7.50
2017-11-08T21:56:40.715Z,7.50
2017-11-08T21:59:07.401Z,7.50
2017-11-08T22:01:33.370Z,7.50
2017-11-08T22:03:59.318Z,7.70
2017-11-08T22:06:25.299Z,7.70
2017-11-08T22:08:51.299Z,7.60
2017-11-08T22:11:17.274Z,7.60
2017-11-08T22:13:43.223Z,7.70
2017-11-08T22:16:09.214Z,7.70
2017-11-08T22:18:35.182Z,7.60
2017-11-08T22:21:01.176Z,7.50
2017-11-08T22:23:27.182Z,7.60
2017-11-08T22:25:53.133Z,7.60
2017-11-08T22:28:19.109Z,7.50
2017-11-08T22:30:45.854Z,7.60
2017-11-08T22:33:12.559Z,7.50
2017-11-08T22:35:38.512Z,7.50
2017-11-08T22:38:04.496Z,7.50
2017-11-08T22:40:30.457Z,7.50
2017-11-08T22:42:56.445Z,7.50
2017-11-08T22:45:23.135Z,7.40
2017-11-08T22:47:49.181Z,7.40
2017-11-08T22:50:15.145Z,7.40
2017-11-08T22:52:41.099Z,7.30
2017-11-08T22:55:07.082Z,7.30
2017-11-08T22:57:33.040Z,7.40
2017-11-08T22:59:59.017Z,7.20
2017-11-08T23:02:25.758Z,7.20
2017-11-08T23:04:51.717Z,7.10
2017-11-08T23:07:18.422Z,7.10
2017-11-08T23:09:44.432Z,7.10
2017-11-08T23:12:10.416Z,7.10
2017-11-08T23:14:36.426Z,7.00
2017-11-08T23:17:02.387Z,7.10
2017-11-08T23:19:29.831Z,6.90
2017-11-08T23:21:55.849Z,6.90
2017-11-08T23:24:21.819Z,6.90
2017-11-08T23:26:47.781Z,6.90
2017-11-08T23:29:14.633Z,6.90
2017-11-08T23:31:41.337Z,6.90
2017-11-08T23:34:07.286Z,6.90
2017-11-08T23:36:33.301Z,6.90
2017-11-08T23:38:59.254Z,6.90
2017-11-08T23:41:25.210Z,6.80
2017-11-08T23:43:51.206Z,6.90
2017-11-08T23:46:17.178Z,6.80
2017-11-08T23:48:43.128Z,6.80
2017-11-08T23:51:09.119Z,6.80
2017-11-08T23:53:36.027Z,6.80
2017-11-08T23:56:02.057Z,6.80
2017-11-08T23:58:28.011Z,6.80
